Hasabi II — ZCPG3 — position and weather

sailwx.info

Track history (hours):
 
Tides and Currents Weather Stations Pressure Air Temp Water Temp Dewpoint Dewpoint Depression Visibility Wind Speed Wind Dir Waves Ship Positions

Hasabi II

Last reported at 2016-Sep-26 11:34 UTC. Time now 2016-Sep-28 22:17 UTC.
Position N 37°58' E 023°34'.

Length 58 m; draft 3 m.

Type: Ship (hazmat cat C). MMSI: 319022000.

Date/timePositionNaut miles runAvg speedWind from/ knotsBaromVisibWave heightAir tempDewpointWater temp
2016-Sep-26 11:34N 37°58' E 023°34'0 0.0
2016-Sep-26 08:34N 37°58' E 023°34'0 0.0
2016-Sep-26 02:33N 37°58' E 023°34'0 0.0
2016-Sep-26 01:33N 37°58' E 023°34'0 0.0
2016-Sep-26 00:34N 37°58' E 023°34'0 0.0
2016-Sep-25 21:33N 37°58' E 023°34'0 0.0
2016-Sep-25 17:33N 37°58' E 023°34'0 0.0
2016-Sep-25 16:33N 37°58' E 023°34'0 0.0
2016-Sep-25 15:34N 37°58' E 023°34'0 0.0
2016-Sep-25 14:34N 37°58' E 023°34'0 0.0
2016-Sep-25 12:33N 37°58' E 023°34'0 0.0
2016-Sep-25 11:33N 37°58' E 023°34'0 0.0
2016-Sep-25 10:33N 37°58' E 023°34'0 0.0
2016-Sep-25 09:33N 37°58' E 023°34'0 0.0
2016-Sep-25 07:34N 37°58' E 023°34'0 0.0
2016-Sep-25 04:33N 37°58' E 023°34'0 0.0
2016-Sep-25 00:33N 37°58' E 023°34'0 0.0
2016-Sep-24 22:33N 37°58' E 023°34'0 0.0
2016-Sep-24 21:34N 37°58' E 023°34'0 0.0
2016-Sep-24 18:34N 37°58' E 023°34'0 0.0
2016-Sep-24 17:34N 37°58' E 023°34'0 0.0
2016-Sep-24 16:33N 37°58' E 023°34'0 0.0
2016-Sep-24 14:33N 37°58' E 023°34'0 0.0
2016-Sep-24 12:34N 37°58' E 023°34'0 0.0
2016-Sep-24 10:34N 37°58' E 023°34'0 0.0
2016-Sep-24 09:33N 37°58' E 023°34'4 0.7
2016-Sep-24 03:34N 37°56' E 023°39'0 0.0
2016-Sep-24 02:33N 37°56' E 023°39'0 0.0
2016-Sep-24 01:33N 37°56' E 023°39'0 0.0
2016-Sep-24 00:33N 37°56' E 023°39'0 0.0
2016-Sep-23 19:33N 37°56' E 023°39'0 0.0
2016-Sep-23 17:34N 37°56' E 023°39'0 0.0
2016-Sep-23 16:33N 37°56' E 023°39'0 0.0
2016-Sep-23 15:33N 37°56' E 023°39'0 0.0
2016-Sep-23 13:34N 37°56' E 023°39'0 0.0
2016-Sep-23 09:33N 37°56' E 023°39'0 0.0
2016-Sep-23 06:34N 37°56' E 023°39'0 0.0
2016-Sep-23 04:33N 37°56' E 023°39'0 0.0
2016-Sep-23 03:33N 37°56' E 023°39'0 0.0
2016-Sep-23 02:34N 37°56' E 023°39'0 0.0
2016-Sep-23 01:34N 37°56' E 023°39'0 0.0
2016-Sep-23 00:34N 37°56' E 023°39'0 0.0
2016-Sep-22 23:33N 37°56' E 023°39'0 0.0
2016-Sep-22 20:33N 37°56' E 023°39'0 0.0
2016-Sep-22 12:33N 37°56' E 023°39'4 0.4
2016-Sep-22 04:33N 37°52' E 023°39'10 9.7
2016-Sep-22 03:33N 37°43' E 023°44'5310.0
2016-Sep-21 22:14N 37°23' E 024°46'33 2.6
2016-Sep-21 09:33N 37°06' E 025°22'0 0.0
2016-Sep-21 08:33N 37°06' E 025°22'0 0.0
2016-Sep-21 05:33N 37°06' E 025°22'0 0.0
2016-Sep-21 03:33N 37°06' E 025°22'0 0.0
2016-Sep-21 02:33N 37°06' E 025°22'0 0.0
2016-Sep-20 17:33N 37°06' E 025°22'0 0.0
2016-Sep-20 14:33N 37°06' E 025°22'0 0.4
2016-Sep-20 13:33N 37°06' E 025°22'20 6.8
2016-Sep-20 10:33N 37°27' E 025°19'0 0.0
2016-Sep-20 08:33N 37°27' E 025°19'0 0.0
2016-Sep-20 07:32N 37°27' E 025°19'0 0.0
2016-Sep-20 06:33N 37°27' E 025°19'0 0.0
2016-Sep-20 02:33N 37°27' E 025°19'0 0.0
2016-Sep-19 23:33N 37°27' E 025°19'0 0.0
2016-Sep-19 19:33N 37°27' E 025°19'3 2.3
2016-Sep-19 18:25N 37°24' E 025°18'  
Track history (hours):
 
Tides and Currents Weather Stations Pressure Air Temp Water Temp Dewpoint Dewpoint Depression Visibility Wind Speed Wind Dir Waves Ship Positions

Hasabi II

Last reported at 2016-Sep-26 11:34 UTC. Time now 2016-Sep-28 22:17 UTC.
Position N 37°58' E 023°34'.

Length 58 m; draft 3 m.

Type: Ship (hazmat cat C). MMSI: 319022000.

Date/timePositionNaut miles runAvg speedWind from/ knotsBaromVisibWave heightAir tempDewpointWater temp
2016-Sep-26 11:34N 37°58' E 023°34'0 0.0
2016-Sep-26 08:34N 37°58' E 023°34'0 0.0
2016-Sep-26 02:33N 37°58' E 023°34'0 0.0
2016-Sep-26 01:33N 37°58' E 023°34'0 0.0
2016-Sep-26 00:34N 37°58' E 023°34'0 0.0
2016-Sep-25 21:33N 37°58' E 023°34'0 0.0
2016-Sep-25 17:33N 37°58' E 023°34'0 0.0
2016-Sep-25 16:33N 37°58' E 023°34'0 0.0
2016-Sep-25 15:34N 37°58' E 023°34'0 0.0
2016-Sep-25 14:34N 37°58' E 023°34'0 0.0
2016-Sep-25 12:33N 37°58' E 023°34'0 0.0
2016-Sep-25 11:33N 37°58' E 023°34'0 0.0
2016-Sep-25 10:33N 37°58' E 023°34'0 0.0
2016-Sep-25 09:33N 37°58' E 023°34'0 0.0
2016-Sep-25 07:34N 37°58' E 023°34'0 0.0
2016-Sep-25 04:33N 37°58' E 023°34'0 0.0
2016-Sep-25 00:33N 37°58' E 023°34'0 0.0
2016-Sep-24 22:33N 37°58' E 023°34'0 0.0
2016-Sep-24 21:34N 37°58' E 023°34'0 0.0
2016-Sep-24 18:34N 37°58' E 023°34'0 0.0
2016-Sep-24 17:34N 37°58' E 023°34'0 0.0
2016-Sep-24 16:33N 37°58' E 023°34'0 0.0
2016-Sep-24 14:33N 37°58' E 023°34'0 0.0
2016-Sep-24 12:34N 37°58' E 023°34'0 0.0
2016-Sep-24 10:34N 37°58' E 023°34'0 0.0
2016-Sep-24 09:33N 37°58' E 023°34'4 0.7
2016-Sep-24 03:34N 37°56' E 023°39'0 0.0
2016-Sep-24 02:33N 37°56' E 023°39'0 0.0
2016-Sep-24 01:33N 37°56' E 023°39'0 0.0
2016-Sep-24 00:33N 37°56' E 023°39'0 0.0
2016-Sep-23 19:33N 37°56' E 023°39'0 0.0
2016-Sep-23 17:34N 37°56' E 023°39'0 0.0
2016-Sep-23 16:33N 37°56' E 023°39'0 0.0
2016-Sep-23 15:33N 37°56' E 023°39'0 0.0
2016-Sep-23 13:34N 37°56' E 023°39'0 0.0
2016-Sep-23 09:33N 37°56' E 023°39'0 0.0
2016-Sep-23 06:34N 37°56' E 023°39'0 0.0
2016-Sep-23 04:33N 37°56' E 023°39'0 0.0
2016-Sep-23 03:33N 37°56' E 023°39'0 0.0
2016-Sep-23 02:34N 37°56' E 023°39'0 0.0
2016-Sep-23 01:34N 37°56' E 023°39'0 0.0
2016-Sep-23 00:34N 37°56' E 023°39'0 0.0
2016-Sep-22 23:33N 37°56' E 023°39'0 0.0
2016-Sep-22 20:33N 37°56' E 023°39'0 0.0
2016-Sep-22 12:33N 37°56' E 023°39'4 0.4
2016-Sep-22 04:33N 37°52' E 023°39'10 9.7
2016-Sep-22 03:33N 37°43' E 023°44'5310.0
2016-Sep-21 22:14N 37°23' E 024°46'33 2.6
2016-Sep-21 09:33N 37°06' E 025°22'0 0.0
2016-Sep-21 08:33N 37°06' E 025°22'0 0.0
2016-Sep-21 05:33N 37°06' E 025°22'0 0.0
2016-Sep-21 03:33N 37°06' E 025°22'0 0.0
2016-Sep-21 02:33N 37°06' E 025°22'0 0.0
2016-Sep-20 17:33N 37°06' E 025°22'0 0.0
2016-Sep-20 14:33N 37°06' E 025°22'0 0.4
2016-Sep-20 13:33N 37°06' E 025°22'20 6.8
2016-Sep-20 10:33N 37°27' E 025°19'0 0.0
2016-Sep-20 08:33N 37°27' E 025°19'0 0.0
2016-Sep-20 07:32N 37°27' E 025°19'0 0.0
2016-Sep-20 06:33N 37°27' E 025°19'0 0.0
2016-Sep-20 02:33N 37°27' E 025°19'0 0.0
2016-Sep-19 23:33N 37°27' E 025°19'0 0.0
2016-Sep-19 19:33N 37°27' E 025°19'3 2.3
2016-Sep-19 18:25N 37°24' E 025°18'  

Dump ship's entire track history